Mundford, United Kingdom
Current Conditions -  °F | °C
As of 2:29 PM on Thursday 29 Jan 2015 (Local Time) from EGUL Reporting Station
Light Snow Light Snow  
Wind Chill: 33°   Ceiling: 3000
Heat Index: 41°   Visibility: 6mi
Dew Point: 39°   Wind: 16mph
Humidity: 93%   Direction: 260°W
Pressure: 28.82"   Gusts: 21mph
Location:  52.51°N, 0.66°E
Report Text: EGUL 291429Z 26014G18KT 9000 -RASN BKN030 OVC042 05/04 A2882 RMK AO2A
Loading
Personal Weather Stations






























Interactive Weather Map New forecast layout! Learn more

10-Day Weather Forecast

Advertisements
Track Severe Weather on mobile